This is the latest recevied weather packets stored in our database for station/object IZ8QAD-12. If no packets are shown the sender has not sent any weather packets the latest 10 day(s).
| Time | Temp. | Humidity | Pressure | Rain* | Wind** | Luminosity | Snow |
|---|---|---|---|---|---|---|---|
| 1777997551 | 18.33° C | 30% | 968.9 hPa | - | - | - | - |
| 1777994851 | 21.11° C | 27% | 969.2 hPa | - | - | - | - |
| 1777989451 | 25° C | 21% | 969.4 hPa | - | - | - | - |
| 1777986751 | 27.78° C | 23% | 969.6 hPa | - | - | - | - |
| 1777984051 | 27.78° C | 22% | 970 hPa | - | - | - | - |
| 1777981351 | 37.22° C | 17% | 970.1 hPa | - | - | - | - |
| 1777978650 | 25° C | 30% | 970.2 hPa | - | - | - | - |
| 1777975950 | 23.33° C | 31% | 970.3 hPa | - | - | - | - |
| 1777973250 | 22.78° C | 31% | 970 hPa | - | - | - | - |
| 1777970550 | 21.11° C | 37% | 970.1 hPa | - | - | - | - |
| 1777965153 | 18.89° C | 40% | 970.1 hPa | - | - | - | - |
| 1777962451 | 16.67° C | 42% | 969.8 hPa | - | - | - | - |
| 1777959751 | 14.44° C | 42% | 969.6 hPa | - | - | - | - |
| 1777957050 | 12.78° C | 47% | 969.5 hPa | - | - | - | - |
| 1777954350 | 11.11° C | 51% | 969.3 hPa | - | - | - | - |
| 1777951650 | 10° C | 54% | 969.4 hPa | - | - | - | - |
| 1777948950 | 10.56° C | 55% | 969.6 hPa | - | - | - | - |
| 1777946252 | 10° C | 55% | 969.8 hPa | - | - | - | - |
| 1777943561 | 10° C | 56% | 970.4 hPa | - | - | - | - |
| 1777940852 | 10° C | 55% | 970.7 hPa | - | - | - | - |
| 1777938152 | 10.56° C | 56% | 970.5 hPa | - | - | - | - |
| 1777935452 | 10.56° C | 56% | 970.7 hPa | - | - | - | - |
| 1777932752 | 11.11° C | 55% | 971.2 hPa | - | - | - | - |
| 1777930052 | 11.67° C | 51% | 971.3 hPa | - | - | - | - |
| 1777927352 | 12.22° C | 48% | 971.1 hPa | - | - | - | - |
* Rain since midnight (hover to see other rain measurements)
** Current wind speed in m/s (hover to see current wind gust speed)